createdAt,value
2018-03-29T00:00:37.599Z,8.96
2018-03-29T00:01:37.604Z,8.90
2018-03-29T00:02:37.604Z,8.90
2018-03-29T00:03:37.598Z,8.86
2018-03-29T00:04:37.630Z,8.88
2018-03-29T00:05:37.574Z,8.91
2018-03-29T00:06:37.600Z,8.96
2018-03-29T00:07:37.563Z,8.86
2018-03-29T00:08:37.561Z,8.86
2018-03-29T00:09:37.553Z,8.75
2018-03-29T00:10:37.550Z,8.69
2018-03-29T00:11:37.556Z,8.79
2018-03-29T00:12:37.561Z,8.75
2018-03-29T00:13:37.526Z,8.71
2018-03-29T00:14:37.527Z,8.72
2018-03-29T00:15:37.524Z,8.83
2018-03-29T00:16:37.525Z,8.72
2018-03-29T00:17:37.504Z,8.63
2018-03-29T00:18:37.507Z,8.71
2018-03-29T00:19:37.514Z,8.72
2018-03-29T00:20:37.502Z,8.62
2018-03-29T00:21:37.521Z,8.75
2018-03-29T00:23:58.539Z,8.69
2018-03-29T00:25:07.162Z,8.66
2018-03-29T00:27:00.994Z,8.76
2018-03-29T00:27:51.929Z,8.71
2018-03-29T00:29:00.610Z,8.75
2018-03-29T00:30:53.196Z,8.71
2018-03-29T00:33:06.360Z,8.58
2018-03-29T00:34:06.332Z,8.65
2018-03-29T00:35:06.330Z,8.69
2018-03-29T00:36:06.319Z,8.66
2018-03-29T00:37:06.335Z,8.58
2018-03-29T00:38:06.314Z,8.78
2018-03-29T00:39:06.302Z,8.73
2018-03-29T00:40:06.311Z,8.75
2018-03-29T00:41:06.316Z,8.75
2018-03-29T00:42:06.288Z,8.63
2018-03-29T00:43:06.307Z,8.65
2018-03-29T00:44:06.286Z,8.66
2018-03-29T00:45:06.323Z,8.71
2018-03-29T00:46:06.267Z,8.62
2018-03-29T00:47:06.258Z,8.62
2018-03-29T00:48:06.276Z,8.62
2018-03-29T00:49:06.256Z,8.60
2018-03-29T00:50:06.265Z,8.65
2018-03-29T00:51:06.247Z,8.44
2018-03-29T00:52:06.229Z,8.65
2018-03-29T00:53:06.225Z,8.48
2018-03-29T00:54:06.222Z,8.57
2018-03-29T00:55:06.213Z,8.55
2018-03-29T00:56:06.204Z,8.48
2018-03-29T00:57:06.204Z,8.55
2018-03-29T00:58:06.227Z,8.48
2018-03-29T00:59:06.187Z,8.36
2018-03-29T01:00:06.187Z,8.39
2018-03-29T01:01:06.186Z,8.51
2018-03-29T01:02:06.172Z,8.50
2018-03-29T01:03:06.174Z,8.47
2018-03-29T01:04:06.164Z,8.30
2018-03-29T01:05:06.183Z,8.48
2018-03-29T01:06:06.149Z,8.47
2018-03-29T01:07:06.144Z,8.45
2018-03-29T01:08:06.139Z,8.48
2018-03-29T01:09:06.146Z,8.44
2018-03-29T01:10:06.132Z,8.35
2018-03-29T01:11:06.119Z,8.35
2018-03-29T01:12:06.120Z,8.30
2018-03-29T01:13:06.159Z,8.37
2018-03-29T01:14:06.102Z,8.26
2018-03-29T01:15:06.140Z,8.30
2018-03-29T01:16:06.103Z,8.35
2018-03-29T01:17:06.155Z,8.25
2018-03-29T01:18:06.078Z,8.18
2018-03-29T01:19:06.077Z,8.32
2018-03-29T01:20:06.066Z,8.30
2018-03-29T01:21:06.081Z,8.26
2018-03-29T01:22:06.053Z,8.25
2018-03-29T01:23:06.046Z,8.29
2018-03-29T01:24:06.046Z,8.30
2018-03-29T01:25:06.035Z,8.17
2018-03-29T01:26:06.033Z,8.17
2018-03-29T01:27:06.024Z,8.28
2018-03-29T01:28:06.026Z,8.07
2018-03-29T01:29:06.020Z,8.25
2018-03-29T01:30:06.033Z,8.22
2018-03-29T01:31:05.997Z,8.17
2018-03-29T01:32:06.039Z,8.21
2018-03-29T01:33:05.981Z,8.20
2018-03-29T01:34:05.982Z,8.22
2018-03-29T01:35:05.983Z,8.21
2018-03-29T01:36:05.985Z,8.18
2018-03-29T01:37:05.974Z,8.20
2018-03-29T01:38:05.973Z,8.08
2018-03-29T01:39:05.964Z,8.20
2018-03-29T01:40:05.943Z,8.22
2018-03-29T01:41:05.932Z,8.17
2018-03-29T01:42:05.935Z,8.26
2018-03-29T01:43:05.927Z,8.26
2018-03-29T01:44:05.935Z,8.33
2018-03-29T01:45:05.934Z,8.14
2018-03-29T01:46:05.944Z,8.11
2018-03-29T01:47:05.916Z,8.17
2018-03-29T01:48:05.891Z,8.20
2018-03-29T01:49:05.890Z,8.20
2018-03-29T01:50:05.911Z,8.07
2018-03-29T01:51:05.902Z,8.11
2018-03-29T01:52:05.884Z,8.22
2018-03-29T01:53:05.905Z,8.22
2018-03-29T01:54:05.856Z,8.25
2018-03-29T01:55:05.848Z,8.21
2018-03-29T01:56:05.852Z,8.15
2018-03-29T01:57:06.040Z,8.17
2018-03-29T01:58:06.032Z,8.12
2018-03-29T01:59:05.825Z,8.14
2018-03-29T02:00:05.823Z,8.20
2018-03-29T02:01:05.830Z,8.21
2018-03-29T02:02:05.818Z,8.04
2018-03-29T02:03:05.800Z,8.17
2018-03-29T02:04:05.793Z,8.11
2018-03-29T02:05:05.788Z,8.14
2018-03-29T02:06:05.789Z,8.12
2018-03-29T02:07:05.779Z,8.14
2018-03-29T02:08:05.798Z,8.08
2018-03-29T02:09:05.809Z,8.12
2018-03-29T02:10:05.769Z,8.12
2018-03-29T02:11:05.795Z,8.07
2018-03-29T02:12:05.745Z,8.29
2018-03-29T02:13:05.738Z,8.10
2018-03-29T02:14:05.737Z,8.15
2018-03-29T02:15:05.733Z,8.25
2018-03-29T02:16:05.718Z,8.18
2018-03-29T02:17:05.713Z,8.20
2018-03-29T02:18:05.716Z,8.17
2018-03-29T02:19:05.737Z,8.18
2018-03-29T02:20:05.696Z,8.11
2018-03-29T02:21:05.690Z,8.07
2018-03-29T02:22:05.688Z,8.10
2018-03-29T02:23:05.688Z,8.12
2018-03-29T02:24:05.684Z,8.07
2018-03-29T02:25:05.677Z,8.10
2018-03-29T02:26:05.670Z,8.14
2018-03-29T02:27:05.673Z,8.17
2018-03-29T02:28:05.645Z,8.12
2018-03-29T02:29:05.644Z,8.12
2018-03-29T02:30:05.639Z,8.10
2018-03-29T02:31:05.632Z,8.07
2018-03-29T02:32:05.631Z,8.15
2018-03-29T02:33:05.625Z,8.07
2018-03-29T02:34:05.621Z,7.96
2018-03-29T02:35:05.628Z,8.11
2018-03-29T02:36:05.609Z,8.12
2018-03-29T02:37:05.596Z,8.21
2018-03-29T02:38:05.604Z,8.11
2018-03-29T02:39:05.589Z,8.14
2018-03-29T02:40:05.586Z,8.14
2018-03-29T02:41:05.576Z,8.08
2018-03-29T02:42:05.580Z,8.07
2018-03-29T02:43:05.568Z,7.96
2018-03-29T02:44:05.580Z,8.08
2018-03-29T02:45:05.640Z,8.02
2018-03-29T02:46:05.615Z,8.15
2018-03-29T02:47:05.536Z,8.04
2018-03-29T02:48:05.529Z,8.07
2018-03-29T02:49:05.531Z,8.07
2018-03-29T02:50:05.528Z,8.08
2018-03-29T02:51:05.520Z,7.97
2018-03-29T02:52:05.513Z,7.93
2018-03-29T02:53:05.500Z,8.08
2018-03-29T02:54:05.505Z,8.04
2018-03-29T02:55:05.488Z,8.07
2018-03-29T02:56:05.493Z,8.10
2018-03-29T02:57:05.485Z,8.07
2018-03-29T02:58:05.482Z,8.11
2018-03-29T02:59:05.491Z,8.04
2018-03-29T03:00:05.466Z,8.02
2018-03-29T03:01:05.462Z,7.94
2018-03-29T03:02:05.453Z,8.03
2018-03-29T03:03:05.474Z,7.93
2018-03-29T03:04:05.436Z,8.04
2018-03-29T03:05:05.457Z,8.08
2018-03-29T03:06:05.426Z,7.93
2018-03-29T03:24:54.662Z,7.82
2018-03-29T03:25:54.679Z,7.82
2018-03-29T03:26:54.630Z,7.78
2018-03-29T03:27:54.642Z,7.72
2018-03-29T03:28:54.618Z,7.74
2018-03-29T03:29:54.595Z,7.66
2018-03-29T03:30:54.608Z,7.74
2018-03-29T03:31:54.583Z,7.66
2018-03-29T03:32:54.588Z,7.62
2018-03-29T03:33:54.557Z,7.56
2018-03-29T03:34:54.559Z,7.58
2018-03-29T03:35:54.563Z,7.58
2018-03-29T03:36:54.557Z,7.47
2018-03-29T03:37:54.546Z,7.58
2018-03-29T03:38:54.536Z,7.58
2018-03-29T03:39:54.525Z,7.60
2018-03-29T03:40:54.516Z,7.45
2018-03-29T03:41:54.501Z,7.63
2018-03-29T03:42:54.552Z,7.50
2018-03-29T03:43:54.493Z,7.50
2018-03-29T03:44:54.488Z,7.40
2018-03-29T03:45:54.471Z,7.44
2018-03-29T03:46:54.467Z,7.50
2018-03-29T03:47:54.463Z,7.38
2018-03-29T03:48:54.469Z,7.41
2018-03-29T03:49:54.480Z,7.49
2018-03-29T03:50:54.452Z,7.41
2018-03-29T03:51:54.443Z,7.50
2018-03-29T03:52:54.428Z,7.38
2018-03-29T03:53:54.418Z,7.20
2018-03-29T03:54:54.408Z,7.31
2018-03-29T03:55:54.417Z,7.26
2018-03-29T03:56:54.416Z,7.27
2018-03-29T03:57:54.417Z,7.31
2018-03-29T03:58:54.416Z,7.13
2018-03-29T03:59:54.421Z,7.15
2018-03-29T04:00:54.378Z,7.24
2018-03-29T04:01:54.388Z,7.19
2018-03-29T04:02:54.369Z,7.24
2018-03-29T04:03:54.362Z,7.35
2018-03-29T04:04:54.358Z,7.26
2018-03-29T04:05:54.356Z,7.27
2018-03-29T04:06:54.404Z,7.22
2018-03-29T04:07:54.333Z,7.26
2018-03-29T04:08:54.324Z,7.31
2018-03-29T04:09:54.348Z,7.24
2018-03-29T04:10:54.343Z,7.16
2018-03-29T04:11:54.326Z,7.22
2018-03-29T04:12:54.324Z,7.26
2018-03-29T04:13:54.319Z,7.31
2018-03-29T04:14:54.299Z,7.26
2018-03-29T04:15:54.293Z,7.19
2018-03-29T04:16:54.282Z,7.23
2018-03-29T04:17:54.268Z,7.27
2018-03-29T04:18:54.262Z,7.35
2018-03-29T04:19:54.394Z,7.44
2018-03-29T04:20:54.255Z,7.38
2018-03-29T04:21:54.266Z,7.40
2018-03-29T04:22:54.275Z,7.41
2018-03-29T04:23:54.240Z,7.34
2018-03-29T04:24:54.229Z,7.27
2018-03-29T04:25:54.256Z,7.26
2018-03-29T04:26:54.221Z,7.24
2018-03-29T04:27:54.208Z,7.27
2018-03-29T04:28:54.220Z,7.23
2018-03-29T04:29:54.218Z,7.24
2018-03-29T04:30:54.192Z,7.32
2018-03-29T04:31:54.180Z,7.35
2018-03-29T04:32:54.174Z,7.37
2018-03-29T04:33:54.192Z,7.45
2018-03-29T04:34:54.161Z,7.42
2018-03-29T04:35:54.163Z,7.40
2018-03-29T04:36:54.175Z,7.32
2018-03-29T04:37:54.149Z,7.41
2018-03-29T04:38:54.137Z,7.41
2018-03-29T04:39:54.127Z,7.55
2018-03-29T04:40:54.142Z,7.44
2018-03-29T04:41:54.117Z,7.35
2018-03-29T04:42:54.125Z,7.52
2018-03-29T04:43:54.112Z,7.42
2018-03-29T04:44:54.126Z,7.26
2018-03-29T04:45:54.117Z,7.26
2018-03-29T04:46:54.120Z,7.24
2018-03-29T04:47:54.083Z,7.35
2018-03-29T04:48:54.073Z,7.31
2018-03-29T04:51:16.392Z,7.44
2018-03-29T04:52:16.108Z,7.41
2018-03-29T04:53:16.105Z,7.37
2018-03-29T04:54:16.118Z,7.29
2018-03-29T04:55:16.287Z,7.45
2018-03-29T04:56:16.118Z,7.40
2018-03-29T04:57:16.111Z,7.29
2018-03-29T04:58:16.076Z,7.35
2018-03-29T04:59:16.051Z,7.32
2018-03-29T05:00:16.042Z,7.31
2018-03-29T05:01:16.039Z,7.45
2018-03-29T05:02:16.038Z,7.45
2018-03-29T05:03:16.069Z,7.35
2018-03-29T05:04:16.018Z,7.27
2018-03-29T05:05:16.084Z,7.29
2018-03-29T05:06:16.063Z,7.31
2018-03-29T05:07:16.000Z,7.31
2018-03-29T05:08:16.000Z,7.20
2018-03-29T05:09:16.000Z,7.32
2018-03-29T05:10:15.991Z,7.29
2018-03-29T05:11:15.979Z,7.16
2018-03-29T05:12:15.978Z,7.16
2018-03-29T05:13:15.972Z,7.17
2018-03-29T05:14:15.958Z,7.29
2018-03-29T05:15:15.952Z,7.27
2018-03-29T05:16:15.981Z,7.26
2018-03-29T05:17:15.941Z,7.22
2018-03-29T05:18:15.935Z,7.13
2018-03-29T05:19:15.945Z,7.23
2018-03-29T05:20:15.953Z,7.23
2018-03-29T05:21:15.938Z,7.12
2018-03-29T05:22:15.912Z,7.16
2018-03-29T05:23:15.929Z,7.22
2018-03-29T05:24:15.909Z,7.17
2018-03-29T05:25:15.890Z,7.31
2018-03-29T05:26:15.918Z,7.20
2018-03-29T05:27:15.918Z,7.19
2018-03-29T05:28:15.897Z,7.27
2018-03-29T05:29:15.890Z,7.19
2018-03-29T05:30:15.858Z,7.27
2018-03-29T05:31:15.891Z,7.15
2018-03-29T05:32:15.873Z,7.15
2018-03-29T05:33:15.865Z,7.24
2018-03-29T05:34:15.921Z,7.27
2018-03-29T05:35:15.865Z,7.26
2018-03-29T05:36:15.880Z,7.26
2018-03-29T05:37:15.867Z,7.19
2018-03-29T05:38:15.876Z,7.24
2018-03-29T05:39:15.808Z,7.24
2018-03-29T05:40:15.839Z,7.09
2018-03-29T05:41:15.798Z,7.04
2018-03-29T05:42:15.785Z,7.19
2018-03-29T05:43:15.801Z,7.23
2018-03-29T05:44:15.783Z,7.29
2018-03-29T05:45:15.812Z,7.29
2018-03-29T05:46:15.757Z,7.41
2018-03-29T05:47:15.759Z,7.20
2018-03-29T05:48:15.754Z,7.34
2018-03-29T05:49:15.747Z,7.32
2018-03-29T05:50:15.759Z,7.31
2018-03-29T05:51:15.726Z,7.41
2018-03-29T05:52:15.731Z,7.35
2018-03-29T05:53:15.715Z,7.24
2018-03-29T05:54:15.713Z,7.26
2018-03-29T05:55:15.707Z,7.35
2018-03-29T05:56:15.703Z,7.23
2018-03-29T05:57:15.702Z,7.35
2018-03-29T05:58:15.696Z,7.23
2018-03-29T05:59:15.712Z,7.15
2018-03-29T06:00:15.670Z,7.24
2018-03-29T06:01:15.689Z,7.38
2018-03-29T06:02:15.673Z,7.38
2018-03-29T06:03:15.731Z,7.55
2018-03-29T06:04:15.660Z,7.52
2018-03-29T06:05:15.759Z,7.59
2018-03-29T06:06:15.671Z,7.58
2018-03-29T06:07:15.628Z,7.69
2018-03-29T06:08:15.657Z,7.58
2018-03-29T06:09:15.679Z,7.71
2018-03-29T06:10:15.613Z,7.84
2018-03-29T06:11:15.633Z,7.85
2018-03-29T06:12:15.615Z,7.94
2018-03-29T06:13:15.599Z,8.00
2018-03-29T06:14:15.587Z,8.04
2018-03-29T06:15:15.589Z,7.99
2018-03-29T06:16:24.246Z,8.03
2018-03-29T06:18:10.022Z,7.94
2018-03-29T06:19:09.987Z,7.99
2018-03-29T06:20:10.011Z,7.94
2018-03-29T06:21:10.012Z,7.84
2018-03-29T06:22:09.961Z,7.84
2018-03-29T06:23:09.999Z,7.67
2018-03-29T06:24:09.960Z,7.90
2018-03-29T06:25:09.953Z,7.84
2018-03-29T06:26:09.974Z,7.96
2018-03-29T06:27:09.935Z,7.94
2018-03-29T06:28:09.940Z,8.07
2018-03-29T06:29:09.951Z,8.00
2018-03-29T06:30:09.917Z,8.02
2018-03-29T06:31:09.914Z,8.04
2018-03-29T06:32:09.942Z,8.03
2018-03-29T06:33:09.923Z,8.12
2018-03-29T06:34:09.927Z,7.97
2018-03-29T06:35:09.886Z,8.04
2018-03-29T06:36:09.896Z,8.12
2018-03-29T06:37:09.881Z,8.08
2018-03-29T06:38:09.872Z,8.26
2018-03-29T06:39:09.865Z,8.12
2018-03-29T06:40:09.856Z,8.04
2018-03-29T06:41:09.861Z,8.07
2018-03-29T06:42:09.858Z,7.97
2018-03-29T06:43:09.852Z,7.94
2018-03-29T06:44:09.873Z,8.10
2018-03-29T06:45:09.852Z,8.03
2018-03-29T06:46:09.863Z,8.04
2018-03-29T06:47:09.850Z,7.94
2018-03-29T06:48:09.861Z,8.15
2018-03-29T06:49:09.826Z,8.17
2018-03-29T06:50:09.851Z,8.00
2018-03-29T06:51:09.802Z,8.00
2018-03-29T06:52:09.801Z,8.07
2018-03-29T06:53:09.796Z,8.17
2018-03-29T06:54:09.782Z,8.15
2018-03-29T06:55:09.804Z,8.04
2018-03-29T06:56:09.768Z,8.03
2018-03-29T06:57:09.801Z,8.02
2018-03-29T06:58:09.759Z,8.07
2018-03-29T06:59:09.791Z,7.97
2018-03-29T07:00:09.748Z,8.15
2018-03-29T07:01:09.769Z,8.14
2018-03-29T07:02:09.731Z,8.15
2018-03-29T07:03:09.755Z,8.08
2018-03-29T07:04:09.727Z,8.10
2018-03-29T07:05:09.734Z,8.22
2018-03-29T07:06:09.711Z,8.22
2018-03-29T07:07:09.707Z,8.28
2018-03-29T07:08:09.693Z,8.29
2018-03-29T07:09:09.723Z,8.21
2018-03-29T07:10:09.709Z,8.22
2018-03-29T07:11:09.676Z,8.25
2018-03-29T07:12:09.672Z,8.29
2018-03-29T07:13:09.674Z,8.37
2018-03-29T07:14:09.675Z,8.35
2018-03-29T07:15:09.675Z,8.29
2018-03-29T07:16:09.651Z,8.25
2018-03-29T07:17:09.668Z,8.30
2018-03-29T07:18:09.635Z,8.33
2018-03-29T07:19:09.629Z,8.42
2018-03-29T07:20:09.631Z,8.57
2018-03-29T07:21:09.627Z,8.39
2018-03-29T07:22:09.628Z,8.33
2018-03-29T07:23:09.674Z,8.25
2018-03-29T07:24:09.607Z,8.30
2018-03-29T07:25:09.605Z,8.44
2018-03-29T07:26:09.605Z,8.44
2018-03-29T07:27:09.588Z,8.45
2018-03-29T07:28:09.590Z,8.45
2018-03-29T07:29:09.578Z,8.45
2018-03-29T07:30:09.567Z,8.53
2018-03-29T07:31:09.565Z,8.42
2018-03-29T07:32:09.561Z,8.51
2018-03-29T07:33:09.549Z,8.60
2018-03-29T07:34:09.548Z,8.53
2018-03-29T07:35:09.542Z,8.62
2018-03-29T07:36:09.537Z,8.65
2018-03-29T07:37:09.541Z,8.53
2018-03-29T07:38:09.518Z,8.57
2018-03-29T07:39:09.556Z,8.72
2018-03-29T07:40:09.506Z,8.60
2018-03-29T07:41:09.506Z,8.66
2018-03-29T07:42:09.498Z,8.50
2018-03-29T07:43:09.512Z,8.50
2018-03-29T07:44:09.487Z,8.42
2018-03-29T07:45:09.506Z,8.50
2018-03-29T07:46:09.478Z,8.39
2018-03-29T07:47:09.522Z,8.48
2018-03-29T07:48:09.474Z,8.57
2018-03-29T07:49:09.472Z,8.60
2018-03-29T07:50:09.463Z,8.69
2018-03-29T07:51:09.439Z,8.83
2018-03-29T07:52:09.446Z,8.90
2018-03-29T07:53:09.473Z,8.86
2018-03-29T07:54:09.426Z,8.75
2018-03-29T07:55:09.428Z,8.72
2018-03-29T07:56:09.416Z,8.81
2018-03-29T07:57:09.409Z,8.90
2018-03-29T07:58:09.416Z,9.06
2018-03-29T07:59:09.401Z,8.91
2018-03-29T08:00:09.415Z,8.91
2018-03-29T08:01:09.416Z,9.01
2018-03-29T08:02:09.388Z,9.05
2018-03-29T08:03:09.373Z,9.23
2018-03-29T08:04:09.368Z,9.28
2018-03-29T08:05:09.412Z,9.21
2018-03-29T08:06:09.364Z,9.30
2018-03-29T08:07:09.395Z,9.09
2018-03-29T08:08:09.343Z,9.13
2018-03-29T08:09:09.340Z,9.23
2018-03-29T08:10:09.333Z,9.42
2018-03-29T08:11:09.338Z,9.27
2018-03-29T08:12:09.319Z,9.06
2018-03-29T08:13:09.319Z,9.09
2018-03-29T08:14:09.330Z,9.06
2018-03-29T08:15:09.325Z,9.25
2018-03-29T08:16:09.297Z,9.15
2018-03-29T08:17:09.307Z,9.12
2018-03-29T08:18:09.336Z,9.05
2018-03-29T08:19:09.288Z,9.06
2018-03-29T08:20:09.412Z,9.20
2018-03-29T08:21:09.301Z,9.38
2018-03-29T08:22:09.355Z,9.21
2018-03-29T08:23:09.262Z,9.20
2018-03-29T08:24:09.257Z,9.39
2018-03-29T08:25:09.292Z,9.45
2018-03-29T08:26:09.339Z,9.43
2018-03-29T08:27:09.272Z,9.48
2018-03-29T08:28:09.248Z,9.45
2018-03-29T08:29:09.256Z,9.34
2018-03-29T08:30:09.223Z,9.70
2018-03-29T08:31:09.295Z,9.56
2018-03-29T08:32:09.234Z,9.63
2018-03-29T08:33:09.242Z,9.45
2018-03-29T08:34:09.203Z,9.56
2018-03-29T08:35:09.200Z,9.58
2018-03-29T08:36:09.203Z,9.68
2018-03-29T08:37:09.270Z,9.68
2018-03-29T08:38:09.195Z,9.61
2018-03-29T08:39:09.179Z,9.56
2018-03-29T08:40:09.187Z,9.79
2018-03-29T08:41:09.219Z,9.93
2018-03-29T08:42:09.165Z,10.00
2018-03-29T08:43:09.229Z,10.10
2018-03-29T08:44:09.194Z,10.06
2018-03-29T08:45:09.180Z,10.06
2018-03-29T08:46:09.155Z,10.28
2018-03-29T08:47:09.147Z,10.32
2018-03-29T08:48:09.201Z,10.04
2018-03-29T08:49:09.147Z,10.21
2018-03-29T08:50:09.165Z,10.39
2018-03-29T08:51:09.168Z,10.32
2018-03-29T08:52:09.152Z,10.21
2018-03-29T08:53:09.112Z,10.00
2018-03-29T08:54:09.163Z,9.88
2018-03-29T08:55:09.099Z,10.00
2018-03-29T08:56:09.104Z,10.15
2018-03-29T08:57:09.132Z,10.19
2018-03-29T08:58:09.112Z,10.18
2018-03-29T08:59:09.148Z,10.01
2018-03-29T09:00:09.122Z,10.06
2018-03-29T09:01:09.102Z,9.88
2018-03-29T09:02:09.096Z,10.03
2018-03-29T09:03:09.082Z,9.89
2018-03-29T09:04:09.077Z,9.73
2018-03-29T09:05:09.068Z,9.81
2018-03-29T09:06:09.054Z,10.00
2018-03-29T09:07:09.056Z,10.32
2018-03-29T09:08:09.046Z,10.39
2018-03-29T09:09:09.057Z,10.44
2018-03-29T09:10:09.037Z,10.83
2018-03-29T09:11:09.084Z,10.98
2018-03-29T09:12:09.035Z,11.02
2018-03-29T09:13:09.067Z,11.06
2018-03-29T09:14:09.021Z,11.21
2018-03-29T09:15:09.030Z,11.19
2018-03-29T09:16:09.010Z,11.01
2018-03-29T09:17:09.018Z,10.96
2018-03-29T09:18:09.009Z,11.17
2018-03-29T09:19:09.014Z,11.09
2018-03-29T09:20:08.991Z,11.06
2018-03-29T09:21:08.983Z,11.24
2018-03-29T09:22:08.979Z,11.20
2018-03-29T09:23:08.979Z,11.54
2018-03-29T09:24:08.969Z,11.53
2018-03-29T09:25:08.982Z,11.24
2018-03-29T09:26:08.974Z,11.27
2018-03-29T09:27:08.986Z,11.31
2018-03-29T09:28:08.994Z,11.16
2018-03-29T09:29:08.983Z,11.02
2018-03-29T09:30:08.967Z,11.25
2018-03-29T09:31:08.992Z,11.34
2018-03-29T09:32:08.940Z,11.25
2018-03-29T09:33:08.940Z,11.13
2018-03-29T09:34:08.934Z,11.03
2018-03-29T09:35:08.980Z,10.73
2018-03-29T09:36:08.930Z,10.71
2018-03-29T09:37:08.954Z,10.96
2018-03-29T09:38:08.934Z,10.99
2018-03-29T09:39:08.928Z,10.83
2018-03-29T09:40:08.908Z,10.89
2018-03-29T09:41:08.924Z,10.94
2018-03-29T09:42:08.898Z,10.71
2018-03-29T09:43:08.906Z,10.59
2018-03-29T09:44:08.892Z,10.73
2018-03-29T09:45:08.888Z,10.58
2018-03-29T09:46:08.895Z,10.56
2018-03-29T09:47:08.881Z,10.56
2018-03-29T09:48:08.924Z,10.71
2018-03-29T09:49:08.880Z,11.06
2018-03-29T09:50:08.868Z,11.29
2018-03-29T09:51:08.865Z,11.24
2018-03-29T09:52:08.879Z,11.29
2018-03-29T09:53:08.916Z,11.29
2018-03-29T09:54:08.858Z,11.24
2018-03-29T09:55:08.869Z,11.11
2018-03-29T09:56:08.863Z,11.09
2018-03-29T09:57:08.858Z,10.89
2018-03-29T09:58:08.870Z,10.73
2018-03-29T09:59:08.870Z,10.80
2018-03-29T10:00:08.835Z,10.73
2018-03-29T10:01:08.842Z,10.71
2018-03-29T10:02:08.822Z,10.78
2018-03-29T10:03:08.820Z,10.66
2018-03-29T10:04:08.845Z,10.88
2018-03-29T10:05:08.828Z,10.96
2018-03-29T10:06:08.842Z,10.94
2018-03-29T10:07:08.811Z,11.17
2018-03-29T10:08:08.812Z,10.99
2018-03-29T10:09:08.840Z,11.03
2018-03-29T10:10:08.811Z,11.03
2018-03-29T10:11:08.823Z,10.99
2018-03-29T10:12:08.788Z,10.84
2018-03-29T10:13:08.781Z,10.89
2018-03-29T10:14:08.868Z,10.98
2018-03-29T10:15:08.799Z,11.09
2018-03-29T10:16:08.767Z,11.27
2018-03-29T10:17:08.814Z,11.19
2018-03-29T10:18:08.761Z,11.02
2018-03-29T10:19:08.787Z,11.03
2018-03-29T10:20:08.749Z,11.02
2018-03-29T10:21:08.825Z,11.06
2018-03-29T10:22:08.746Z,11.25
2018-03-29T10:23:08.759Z,11.13
2018-03-29T10:24:08.760Z,11.02
2018-03-29T10:25:08.764Z,11.13
2018-03-29T10:26:08.782Z,11.16
2018-03-29T10:27:08.727Z,11.35
2018-03-29T10:28:08.781Z,11.47
2018-03-29T10:29:08.724Z,11.71
2018-03-29T10:30:08.822Z,11.65
2018-03-29T10:31:08.709Z,11.70
2018-03-29T10:32:08.717Z,11.31
2018-03-29T10:33:08.720Z,11.25
2018-03-29T10:34:08.709Z,11.25
2018-03-29T10:35:08.741Z,11.49
2018-03-29T10:36:08.718Z,11.85
2018-03-29T10:37:08.686Z,11.65
2018-03-29T10:38:08.680Z,11.54
2018-03-29T10:39:08.826Z,11.65
2018-03-29T10:40:08.685Z,11.71
2018-03-29T10:41:08.717Z,11.68
2018-03-29T10:42:08.686Z,11.72
2018-03-29T10:43:08.671Z,11.65
2018-03-29T10:44:08.703Z,11.86
2018-03-29T10:45:08.693Z,12.15
2018-03-29T10:46:08.653Z,12.16
2018-03-29T10:47:08.698Z,12.09
2018-03-29T10:48:08.674Z,12.13
2018-03-29T10:49:08.662Z,12.05
2018-03-29T10:50:08.655Z,11.97
2018-03-29T10:51:08.749Z,11.78
2018-03-29T10:52:08.669Z,11.72
2018-03-29T10:53:08.627Z,11.80
2018-03-29T10:54:08.668Z,12.06
2018-03-29T10:55:08.634Z,12.21
2018-03-29T10:56:08.620Z,12.12
2018-03-29T10:57:08.619Z,12.11
2018-03-29T10:58:08.630Z,12.20
2018-03-29T10:59:08.610Z,12.09
2018-03-29T11:00:08.649Z,11.75
2018-03-29T11:01:08.601Z,12.11
2018-03-29T11:02:08.610Z,12.19
2018-03-29T11:03:08.593Z,12.38
2018-03-29T11:04:08.600Z,12.24
2018-03-29T11:05:08.606Z,12.23
2018-03-29T11:06:08.584Z,12.09
2018-03-29T11:07:08.637Z,11.64
2018-03-29T11:08:08.629Z,11.75
2018-03-29T11:09:08.577Z,11.80
2018-03-29T11:10:08.616Z,11.96
2018-03-29T11:11:08.591Z,11.94
2018-03-29T11:12:08.573Z,11.87
2018-03-29T11:13:08.610Z,11.86
2018-03-29T11:14:08.645Z,12.13
2018-03-29T11:15:08.568Z,12.41
2018-03-29T11:16:08.568Z,12.48
2018-03-29T11:17:08.554Z,12.44
2018-03-29T11:18:08.556Z,12.29
2018-03-29T11:19:08.543Z,12.37
2018-03-29T11:20:08.537Z,12.12
2018-03-29T11:21:08.541Z,11.82
2018-03-29T11:22:08.575Z,11.80
2018-03-29T11:23:08.567Z,11.83
2018-03-29T11:24:08.579Z,11.97
2018-03-29T11:25:08.531Z,12.16
2018-03-29T11:26:08.545Z,12.12
2018-03-29T11:27:08.538Z,11.86
2018-03-29T11:28:08.523Z,11.71
2018-03-29T11:29:08.519Z,11.72
2018-03-29T11:30:08.513Z,12.06
2018-03-29T11:31:08.506Z,12.20
2018-03-29T11:32:08.505Z,12.15
2018-03-29T11:33:08.567Z,12.01
2018-03-29T11:34:08.494Z,11.77
2018-03-29T11:35:08.582Z,11.65
2018-03-29T11:36:08.489Z,11.67
2018-03-29T11:37:08.519Z,11.78
2018-03-29T11:38:08.484Z,11.83
2018-03-29T11:39:08.508Z,11.83
2018-03-29T11:40:08.476Z,11.86
2018-03-29T11:41:08.471Z,11.90
2018-03-29T11:42:08.538Z,11.89
2018-03-29T11:43:08.469Z,11.83
2018-03-29T11:44:08.464Z,12.12
2018-03-29T11:45:08.474Z,11.96
2018-03-29T11:46:08.474Z,11.87
2018-03-29T11:47:08.462Z,11.87
2018-03-29T11:48:08.450Z,11.78
2018-03-29T11:49:08.477Z,11.93
2018-03-29T11:50:08.453Z,12.08
2018-03-29T11:51:08.486Z,11.93
2018-03-29T11:52:08.470Z,12.13
2018-03-29T11:53:08.469Z,12.26
2018-03-29T11:54:08.427Z,12.27
2018-03-29T11:55:08.426Z,12.12
2018-03-29T11:56:08.447Z,12.12
2018-03-29T11:57:08.445Z,12.11
2018-03-29T11:58:08.461Z,12.15
2018-03-29T11:59:08.443Z,12.12
2018-03-29T12:00:08.450Z,12.13
2018-03-29T12:01:08.416Z,12.39
2018-03-29T12:02:08.406Z,12.23
2018-03-29T12:03:08.408Z,12.21
2018-03-29T12:04:08.434Z,12.24
2018-03-29T12:05:08.426Z,12.12
2018-03-29T12:06:08.409Z,11.93
2018-03-29T12:07:08.415Z,12.13
2018-03-29T12:08:08.415Z,12.12
2018-03-29T12:09:08.405Z,12.15
2018-03-29T12:10:08.381Z,12.41
2018-03-29T12:11:08.382Z,12.41
2018-03-29T12:12:08.381Z,12.51
2018-03-29T12:13:08.412Z,12.21
2018-03-29T12:14:08.371Z,12.29
2018-03-29T12:15:08.456Z,12.38
2018-03-29T12:16:08.360Z,12.57
2018-03-29T12:17:08.362Z,12.21
2018-03-29T12:18:08.386Z,12.41
2018-03-29T12:19:08.384Z,12.12
2018-03-29T12:20:08.400Z,12.23
2018-03-29T12:21:08.394Z,12.12
2018-03-29T12:22:08.389Z,12.13
2018-03-29T12:23:08.364Z,12.16
2018-03-29T12:24:08.350Z,12.13
2018-03-29T12:25:08.360Z,11.93
2018-03-29T12:26:08.339Z,11.74
2018-03-29T12:27:08.377Z,11.94
2018-03-29T12:28:08.342Z,12.08
2018-03-29T12:29:08.356Z,12.23
2018-03-29T12:30:08.356Z,12.30
2018-03-29T12:31:08.353Z,12.45
2018-03-29T12:32:08.331Z,12.44
2018-03-29T12:33:08.335Z,12.56
2018-03-29T12:34:08.346Z,12.49
2018-03-29T12:35:08.309Z,12.44
2018-03-29T12:36:08.337Z,12.38
2018-03-29T12:37:08.313Z,12.31
2018-03-29T12:38:08.369Z,12.37
2018-03-29T12:39:08.340Z,12.44
2018-03-29T12:40:08.320Z,12.57
2018-03-29T12:41:08.342Z,12.62
2018-03-29T12:42:08.328Z,12.54
2018-03-29T12:43:08.286Z,12.60
2018-03-29T12:44:08.314Z,12.51
2018-03-29T12:45:08.283Z,12.16
2018-03-29T12:46:08.290Z,12.15
2018-03-29T12:47:08.282Z,12.16
2018-03-29T12:48:08.383Z,12.04
2018-03-29T12:49:08.294Z,12.16
2018-03-29T12:50:08.284Z,12.41
2018-03-29T12:51:08.314Z,12.27
2018-03-29T12:52:08.331Z,12.21
2018-03-29T12:53:08.324Z,12.34
2018-03-29T12:54:08.269Z,12.23
2018-03-29T12:55:08.247Z,12.56
2018-03-29T12:56:08.292Z,12.66
2018-03-29T12:57:08.241Z,12.51
2018-03-29T12:58:08.242Z,12.57
2018-03-29T12:59:08.239Z,12.71
2018-03-29T13:00:08.263Z,12.67
2018-03-29T13:01:08.258Z,12.62
2018-03-29T13:02:08.226Z,12.52
2018-03-29T13:03:08.308Z,12.51
2018-03-29T13:04:08.266Z,12.56
2018-03-29T13:05:08.226Z,12.38
2018-03-29T13:06:08.232Z,12.33
2018-03-29T13:07:08.230Z,12.44
2018-03-29T13:08:08.212Z,12.52
2018-03-29T13:09:08.222Z,12.54
2018-03-29T13:10:08.243Z,12.44
2018-03-29T13:11:08.254Z,12.45
2018-03-29T13:12:16.832Z,12.49
2018-03-29T13:14:01.668Z,12.51
2018-03-29T13:15:01.631Z,12.52
2018-03-29T13:16:01.602Z,12.69
2018-03-29T13:17:01.603Z,12.59
2018-03-29T13:18:01.618Z,12.70
2018-03-29T13:19:01.599Z,12.60
2018-03-29T13:20:01.588Z,12.46
2018-03-29T13:21:01.611Z,12.64
2018-03-29T13:22:01.589Z,12.62
2018-03-29T13:23:01.641Z,12.57
2018-03-29T13:24:01.581Z,12.57
2018-03-29T13:25:01.581Z,12.60
2018-03-29T13:26:01.577Z,12.23
2018-03-29T13:27:01.594Z,12.21
2018-03-29T13:28:01.588Z,12.16
2018-03-29T13:29:01.571Z,12.11
2018-03-29T13:30:01.584Z,12.12
2018-03-29T13:31:01.615Z,12.16
2018-03-29T13:32:01.594Z,12.06
2018-03-29T13:33:01.558Z,12.15
2018-03-29T13:34:01.553Z,12.04